createdAt,value
2022-08-02T00:05:16.959Z,73.55
2022-08-02T00:15:18.432Z,74.23
2022-08-02T00:25:19.990Z,74.72
2022-08-02T00:35:21.455Z,74.77
2022-08-02T00:46:01.913Z,75.04
2022-08-02T00:55:45.504Z,75.54
2022-08-02T01:06:02.168Z,75.73
2022-08-02T01:16:16.018Z,75.35
2022-08-02T01:26:39.180Z,75.73
2022-08-02T01:36:44.229Z,76.22
2022-08-02T01:46:46.673Z,76.45
2022-08-02T01:56:50.701Z,76.71
2022-08-02T02:06:52.872Z,76.80
2022-08-02T02:16:56.913Z,76.92
2022-08-02T02:27:00.712Z,77.82
2022-08-02T02:37:04.835Z,78.67
2022-08-02T02:47:09.042Z,79.89
2022-08-02T02:57:10.951Z,79.77
2022-08-02T03:07:12.763Z,80.01
2022-08-02T03:17:14.195Z,80.67
2022-08-02T03:27:15.668Z,80.47
2022-08-02T03:37:17.647Z,80.67
2022-08-02T03:47:19.868Z,81.09
2022-08-02T03:57:21.746Z,81.37
2022-08-02T04:08:33.919Z,81.24
2022-08-02T04:17:50.486Z,81.15
2022-08-02T04:28:17.454Z,82.04
2022-08-02T04:38:15.476Z,82.34
2022-08-02T04:48:17.188Z,82.22
2022-08-02T04:58:39.591Z,82.57
2022-08-02T05:08:39.985Z,81.69
2022-08-02T05:18:41.443Z,68.27
2022-08-02T05:28:43.725Z,65.38
2022-08-02T05:38:49.656Z,70.84
2022-08-02T05:48:51.604Z,65.44
2022-08-02T05:59:01.158Z,63.63
2022-08-02T06:09:08.683Z,60.86
2022-08-02T06:19:12.323Z,57.76
2022-08-02T06:29:14.679Z,57.28
2022-08-02T06:39:39.267Z,55.19
2022-08-02T06:49:52.486Z,56.43
2022-08-02T06:59:56.492Z,54.07
2022-08-02T07:10:01.402Z,53.30
2022-08-02T07:20:04.253Z,52.13
2022-08-02T07:30:06.593Z,52.11
2022-08-02T07:40:13.549Z,49.79
2022-08-02T07:50:18.426Z,47.91
2022-08-02T08:00:19.850Z,46.01
2022-08-02T08:10:21.549Z,48.26
2022-08-02T08:20:23.062Z,48.42
2022-08-02T08:30:24.654Z,44.26
2022-08-02T08:40:26.239Z,44.86
2022-08-02T08:50:30.886Z,46.24
2022-08-02T09:00:35.120Z,43.53
2022-08-02T09:10:41.825Z,45.06
2022-08-02T09:21:01.663Z,43.31
2022-08-02T09:31:11.820Z,44.51
2022-08-02T09:41:21.645Z,42.59
2022-08-02T09:51:25.765Z,42.14
2022-08-02T10:01:37.353Z,40.19
2022-08-02T10:11:39.990Z,41.09
2022-08-02T10:21:55.799Z,39.20
2022-08-02T10:32:11.223Z,38.58
2022-08-02T10:42:33.371Z,40.51
2022-08-02T10:52:34.827Z,39.77
2022-08-02T11:02:40.466Z,37.68
2022-08-02T11:13:06.664Z,37.68
2022-08-02T11:23:45.004Z,35.99
2022-08-02T11:33:50.165Z,37.60
2022-08-02T11:43:55.449Z,36.17
2022-08-02T11:53:56.858Z,36.18
2022-08-02T12:03:58.478Z,35.37
2022-08-02T12:14:00.855Z,35.30
2022-08-02T12:24:02.306Z,35.52
2022-08-02T12:34:11.909Z,34.28
2022-08-02T12:44:17.112Z,35.40
2022-08-02T12:54:31.144Z,37.72
2022-08-02T13:04:33.532Z,37.77
2022-08-02T13:14:42.018Z,36.93
2022-08-02T13:24:55.858Z,36.98
2022-08-02T13:34:58.897Z,37.77
2022-08-02T13:45:00.365Z,38.32
2022-08-02T13:55:14.469Z,39.47
2022-08-02T14:05:16.033Z,39.05
2022-08-02T14:15:18.776Z,39.30
2022-08-02T14:25:20.432Z,38.90
2022-08-02T14:35:21.851Z,40.00
2022-08-02T14:45:23.268Z,39.08
2022-08-02T14:55:24.667Z,39.16
2022-08-02T15:05:26.133Z,39.90
2022-08-02T15:15:27.584Z,39.58
2022-08-02T15:25:29.001Z,40.65
2022-08-02T15:35:30.578Z,41.57
2022-08-02T15:45:32.024Z,41.72
2022-08-02T15:55:40.067Z,41.76
2022-08-02T16:05:55.194Z,42.87
2022-08-02T16:15:57.201Z,43.00
2022-08-02T16:25:58.659Z,43.26
2022-08-02T16:36:00.267Z,44.00
2022-08-02T16:46:01.821Z,44.15
2022-08-02T16:56:03.760Z,44.50
2022-08-02T17:06:05.219Z,44.48
2022-08-02T17:16:21.026Z,44.95
2022-08-02T17:26:28.476Z,45.99
2022-08-02T17:36:31.457Z,46.63
2022-08-02T17:46:32.906Z,47.95
2022-08-02T17:56:34.601Z,49.63
2022-08-02T18:06:36.178Z,50.46
2022-08-02T18:16:38.768Z,51.19
2022-08-02T18:26:43.516Z,52.10
2022-08-02T18:36:47.459Z,52.26
2022-08-02T18:46:49.278Z,53.00
2022-08-02T18:56:50.902Z,53.39
2022-08-02T19:06:52.380Z,53.96
2022-08-02T19:16:53.852Z,54.08
2022-08-02T19:26:55.301Z,55.51
2022-08-02T19:36:56.746Z,56.53
2022-08-02T19:46:58.807Z,56.04
2022-08-02T19:57:00.235Z,55.64
2022-08-02T20:07:01.639Z,55.94
2022-08-02T20:17:04.895Z,57.11
2022-08-02T20:27:07.077Z,59.06
2022-08-02T20:38:00.929Z,60.19
2022-08-02T20:47:39.429Z,60.83
2022-08-02T20:57:48.958Z,61.18
2022-08-02T21:08:02.074Z,64.50
2022-08-02T21:18:05.872Z,61.89
2022-08-02T21:38:36.841Z,61.94
2022-08-02T21:48:38.312Z,62.61
2022-08-02T21:58:39.779Z,63.23
2022-08-02T22:08:41.268Z,63.90
2022-08-02T22:18:47.438Z,64.46
2022-08-02T22:28:59.517Z,64.54
2022-08-02T22:39:02.843Z,64.22
2022-08-02T22:49:04.359Z,64.79
2022-08-02T22:59:02.780Z,61.88
2022-08-02T23:09:17.241Z,64.95
2022-08-02T23:19:18.641Z,65.36
2022-08-02T23:29:20.062Z,66.45
2022-08-02T23:39:21.975Z,66.99
2022-08-02T23:49:24.074Z,67.79
2022-08-02T23:59:25.626Z,68.22
